createdAt,value
2023-04-13T00:02:54.784Z,9.69
2023-04-13T00:07:03.821Z,9.71
2023-04-13T00:11:11.067Z,9.55
2023-04-13T00:15:15.706Z,9.58
2023-04-13T00:19:18.496Z,9.60
2023-04-13T00:23:32.442Z,9.63
2023-04-13T00:27:42.506Z,9.63
2023-04-13T00:31:44.278Z,9.79
2023-04-13T00:35:46.562Z,9.76
2023-04-13T00:39:55.495Z,9.90
2023-04-13T00:43:56.430Z,9.90
2023-04-13T00:48:01.294Z,9.87
2023-04-13T00:52:07.048Z,9.84
2023-04-13T00:56:24.791Z,9.85
2023-04-13T01:00:28.051Z,9.84
2023-04-13T01:04:33.636Z,9.83
2023-04-13T01:08:47.207Z,9.82
2023-04-13T01:13:18.757Z,9.63
2023-04-13T01:22:19.335Z,9.65
2023-04-13T01:26:44.559Z,9.53
2023-04-13T01:31:08.769Z,9.54
2023-04-13T01:35:50.330Z,9.52
2023-04-13T01:40:11.426Z,9.62
2023-04-13T01:44:14.663Z,9.66
2023-04-13T01:48:19.625Z,9.62
2023-04-13T01:52:24.351Z,9.57
2023-04-13T01:56:27.044Z,9.45
2023-04-13T02:00:36.510Z,9.43
2023-04-13T02:04:50.453Z,9.45
2023-04-13T02:08:52.495Z,9.26
2023-04-13T02:12:57.359Z,9.14
2023-04-13T02:17:04.079Z,9.10
2023-04-13T02:21:12.420Z,9.19
2023-04-13T02:25:16.081Z,9.15
2023-04-13T02:29:18.662Z,9.13
2023-04-13T02:33:22.176Z,9.16
2023-04-13T02:37:28.742Z,9.18
2023-04-13T02:41:29.822Z,9.16
2023-04-13T02:45:34.484Z,8.93
2023-04-13T02:49:36.632Z,8.98
2023-04-13T02:53:40.740Z,9.06
2023-04-13T02:57:42.619Z,9.05
2023-04-13T03:01:45.625Z,9.03
2023-04-13T03:05:50.935Z,8.96
2023-04-13T03:09:55.555Z,8.88
2023-04-13T03:14:01.333Z,8.91
2023-04-13T03:18:04.327Z,8.98
2023-04-13T03:22:16.360Z,8.93
2023-04-13T03:26:21.823Z,8.80
2023-04-13T03:30:24.815Z,8.88
2023-04-13T03:34:34.592Z,8.81
2023-04-13T03:38:43.303Z,8.79
2023-04-13T03:42:46.813Z,8.90
2023-04-13T03:46:47.617Z,9.02
2023-04-13T03:50:53.630Z,8.95
2023-04-13T03:54:56.850Z,8.92
2023-04-13T03:59:04.638Z,8.67
2023-04-13T04:03:10.765Z,8.62
2023-04-13T04:07:24.866Z,8.58
2023-04-13T04:11:29.525Z,8.69
2023-04-13T04:15:36.001Z,9.16
2023-04-13T04:19:41.908Z,9.56
2023-04-13T04:23:49.268Z,10.04
2023-04-13T04:27:59.366Z,10.32
2023-04-13T04:32:12.873Z,10.49
2023-04-13T04:36:13.732Z,10.65
2023-04-13T04:40:18.731Z,10.72
2023-04-13T04:44:19.996Z,10.85
2023-04-13T04:48:32.215Z,10.88
2023-04-13T04:52:33.166Z,10.75
2023-04-13T04:56:34.190Z,10.55
2023-04-13T05:00:35.258Z,10.79
2023-04-13T05:04:45.559Z,10.65
2023-04-13T05:08:52.524Z,10.96
2023-04-13T05:12:55.964Z,11.20
2023-04-13T05:16:58.712Z,11.56
2023-04-13T05:21:03.209Z,11.82
2023-04-13T05:25:04.828Z,11.31
2023-04-13T05:29:10.756Z,11.40
2023-04-13T05:33:16.177Z,11.26
2023-04-13T05:37:20.360Z,11.72
2023-04-13T05:41:31.658Z,11.96
2023-04-13T05:45:38.396Z,11.69
2023-04-13T05:49:56.896Z,11.29
2023-04-13T05:54:13.622Z,11.35
2023-04-13T05:58:25.723Z,11.06
2023-04-13T06:02:27.733Z,10.74
2023-04-13T06:06:30.615Z,11.00
2023-04-13T06:10:49.971Z,11.03
2023-04-13T06:14:54.062Z,11.15
2023-04-13T06:19:02.034Z,10.98
2023-04-13T06:23:13.814Z,11.07
2023-04-13T06:27:17.422Z,11.26
2023-04-13T06:31:22.167Z,11.36
2023-04-13T06:35:32.374Z,11.44
2023-04-13T06:39:40.529Z,11.72
2023-04-13T06:44:05.659Z,12.09
2023-04-13T06:48:07.673Z,12.14
2023-04-13T06:52:11.654Z,12.37
2023-04-13T06:56:15.681Z,12.37
2023-04-13T07:00:28.966Z,12.61
2023-04-13T07:04:37.907Z,13.47
2023-04-13T07:08:40.607Z,13.32
2023-04-13T07:12:50.037Z,13.07
2023-04-13T07:16:55.959Z,12.98
2023-04-13T07:20:55.944Z,12.87
2023-04-13T07:24:57.730Z,13.36
2023-04-13T07:28:57.977Z,13.65
2023-04-13T07:33:13.110Z,13.56
2023-04-13T07:37:13.902Z,13.71
2023-04-13T07:41:25.103Z,13.96
2023-04-13T07:45:27.931Z,14.51
2023-04-13T07:49:30.740Z,14.82
2023-04-13T07:53:33.269Z,14.68
2023-04-13T07:57:36.091Z,14.23
2023-04-13T08:01:37.031Z,14.27
2023-04-13T08:05:42.702Z,14.57
2023-04-13T08:09:46.309Z,14.76
2023-04-13T08:13:46.451Z,15.00
2023-04-13T08:17:48.749Z,15.36
2023-04-13T08:21:54.667Z,15.33
2023-04-13T08:25:56.021Z,15.13
2023-04-13T08:30:14.869Z,15.56
2023-04-13T08:34:20.456Z,15.38
2023-04-13T08:38:24.852Z,15.21
2023-04-13T08:42:33.370Z,15.27
2023-04-13T08:46:34.254Z,15.70
2023-04-13T08:50:35.708Z,15.77
2023-04-13T08:54:37.477Z,16.06
2023-04-13T08:58:40.560Z,16.01
2023-04-13T09:02:49.251Z,16.31
2023-04-13T09:07:01.568Z,16.24
2023-04-13T09:11:05.715Z,16.51
2023-04-13T09:15:12.400Z,16.23
2023-04-13T09:19:15.783Z,16.80
2023-04-13T09:23:28.974Z,16.74
2023-04-13T09:27:34.319Z,16.92
2023-04-13T09:31:37.272Z,16.78
2023-04-13T09:35:41.557Z,16.83
2023-04-13T09:39:44.018Z,17.15
2023-04-13T09:43:49.701Z,16.99
2023-04-13T09:48:03.646Z,17.31
2023-04-13T09:52:04.262Z,16.87
2023-04-13T09:56:07.875Z,16.96
2023-04-13T10:00:17.746Z,17.41
2023-04-13T10:04:19.160Z,17.33
2023-04-13T10:08:37.588Z,17.39
2023-04-13T10:12:46.213Z,17.71
2023-04-13T10:16:59.444Z,17.41
2023-04-13T10:21:00.593Z,17.32
2023-04-13T10:25:02.648Z,17.33
2023-04-13T10:29:07.620Z,17.78
2023-04-13T10:33:12.007Z,18.12
2023-04-13T10:37:21.170Z,17.82
2023-04-13T10:41:28.987Z,18.39
2023-04-13T10:45:37.745Z,18.94
2023-04-13T10:49:42.871Z,18.77
2023-04-13T10:53:52.521Z,18.80
2023-04-13T10:57:55.079Z,18.22
2023-04-13T11:02:13.748Z,18.46
2023-04-13T11:06:24.993Z,19.29
2023-04-13T11:10:34.915Z,18.83
2023-04-13T11:14:40.474Z,18.61
2023-04-13T11:19:05.793Z,18.95
2023-04-13T11:23:25.962Z,18.72
2023-04-13T11:27:33.401Z,18.58
2023-04-13T11:32:06.510Z,18.67
2023-04-13T11:36:07.660Z,18.53
2023-04-13T11:40:29.185Z,19.02
2023-04-13T11:44:32.579Z,19.30
2023-04-13T11:48:33.745Z,18.86
2023-04-13T11:52:38.382Z,19.19
2023-04-13T11:56:52.761Z,19.41
2023-04-13T12:00:54.207Z,19.74
2023-04-13T12:04:54.638Z,20.03
2023-04-13T12:09:09.387Z,19.75
2023-04-13T12:17:38.458Z,19.56
2023-04-13T12:21:40.267Z,19.27
2023-04-13T12:25:45.385Z,19.71
2023-04-13T12:29:49.182Z,19.96
2023-04-13T12:34:00.995Z,19.63
2023-04-13T12:38:12.070Z,20.23
2023-04-13T12:42:28.384Z,19.95
2023-04-13T12:46:32.389Z,19.84
2023-04-13T12:50:33.722Z,19.84
2023-04-13T12:54:33.591Z,19.75
2023-04-13T12:58:36.067Z,19.76
2023-04-13T13:02:42.861Z,19.92
2023-04-13T13:06:44.433Z,20.06
2023-04-13T13:10:47.289Z,20.52
2023-04-13T13:14:47.852Z,20.40
2023-04-13T13:18:51.605Z,20.83
2023-04-13T13:22:52.010Z,20.79
2023-04-13T13:30:59.440Z,20.66
2023-04-13T13:35:04.471Z,20.79
2023-04-13T13:39:09.318Z,20.52
2023-04-13T13:43:14.044Z,21.22
2023-04-13T13:47:19.346Z,20.61
2023-04-13T13:51:28.411Z,20.95
2023-04-13T13:55:42.488Z,20.86
2023-04-13T13:59:49.430Z,20.99
2023-04-13T14:03:56.474Z,21.32
2023-04-13T14:08:05.620Z,20.92
2023-04-13T14:12:09.204Z,21.17
2023-04-13T14:16:16.442Z,20.87
2023-04-13T14:20:28.947Z,20.86
2023-04-13T14:24:53.653Z,21.20
2023-04-13T14:29:06.686Z,21.18
2023-04-13T14:33:19.113Z,20.78
2023-04-13T14:37:28.261Z,20.99
2023-04-13T14:41:36.237Z,20.87
2023-04-13T14:45:54.842Z,21.14
2023-04-13T14:50:02.536Z,21.34
2023-04-13T14:54:03.691Z,21.18
2023-04-13T14:58:25.464Z,21.79
2023-04-13T15:02:33.116Z,22.17
2023-04-13T15:06:39.458Z,21.84
2023-04-13T15:10:41.275Z,21.74
2023-04-13T15:14:48.028Z,21.88
2023-04-13T15:18:49.988Z,21.87
2023-04-13T15:27:26.073Z,22.17
2023-04-13T15:31:44.090Z,22.11
2023-04-13T15:35:53.309Z,22.00
2023-04-13T15:40:01.104Z,22.10
2023-04-13T15:44:09.363Z,22.12
2023-04-13T15:48:15.935Z,22.11
2023-04-13T15:52:28.142Z,22.23
2023-04-13T15:56:34.181Z,22.52
2023-04-13T16:00:41.579Z,22.46
2023-04-13T16:05:01.403Z,22.62
2023-04-13T16:09:25.491Z,22.88
2023-04-13T16:13:49.460Z,22.95
2023-04-13T16:17:54.132Z,22.42
2023-04-13T16:22:02.519Z,21.94
2023-04-13T16:26:05.440Z,21.59
2023-04-13T16:30:10.385Z,20.86
2023-04-13T16:34:24.869Z,20.65
2023-04-13T16:38:44.428Z,20.36
2023-04-13T16:42:51.826Z,20.04
2023-04-13T16:46:54.785Z,19.80
2023-04-13T16:51:01.823Z,19.62
2023-04-13T16:55:05.631Z,19.51
2023-04-13T16:59:06.707Z,19.47
2023-04-13T17:03:06.706Z,19.44
2023-04-13T17:07:10.934Z,19.38
2023-04-13T17:11:13.888Z,19.25
2023-04-13T17:15:16.003Z,18.91
2023-04-13T17:19:19.928Z,18.62
2023-04-13T17:23:30.086Z,18.49
2023-04-13T17:27:54.594Z,18.37
2023-04-13T17:31:55.265Z,18.26
2023-04-13T17:35:56.293Z,18.20
2023-04-13T17:39:57.027Z,18.16
2023-04-13T17:44:00.191Z,18.02
2023-04-13T17:48:04.272Z,17.99
2023-04-13T17:52:05.583Z,17.92
2023-04-13T17:56:07.572Z,17.59
2023-04-13T18:00:11.262Z,17.59
2023-04-13T18:04:14.045Z,17.51
2023-04-13T18:08:14.498Z,17.34
2023-04-13T18:12:24.053Z,17.07
2023-04-13T18:16:38.084Z,16.67
2023-04-13T18:20:37.979Z,16.34
2023-04-13T18:24:42.395Z,16.35
2023-04-13T18:28:46.333Z,16.31
2023-04-13T18:32:58.185Z,16.16
2023-04-13T18:37:09.611Z,15.92
2023-04-13T18:41:16.264Z,15.83
2023-04-13T18:45:20.221Z,15.73
2023-04-13T18:49:27.113Z,15.69
2023-04-13T18:53:31.813Z,15.72
2023-04-13T18:57:32.838Z,16.01
2023-04-13T19:01:36.411Z,16.02
2023-04-13T19:05:42.719Z,16.01
2023-04-13T19:09:43.019Z,15.84
2023-04-13T19:13:45.042Z,15.73
2023-04-13T19:17:44.738Z,15.65
2023-04-13T19:21:50.570Z,15.44
2023-04-13T19:25:54.487Z,15.40
2023-04-13T19:29:55.207Z,15.01
2023-04-13T19:33:58.247Z,14.91
2023-04-13T19:38:04.649Z,15.00
2023-04-13T19:42:04.978Z,15.07
2023-04-13T19:50:29.350Z,14.95
2023-04-13T19:54:37.482Z,14.62
2023-04-13T19:58:39.019Z,14.67
2023-04-13T20:02:40.453Z,14.61
2023-04-13T20:06:41.957Z,14.53
2023-04-13T20:10:48.542Z,14.44
2023-04-13T20:14:51.956Z,14.47
2023-04-13T20:18:57.919Z,14.50
2023-04-13T20:23:03.248Z,14.49
2023-04-13T20:27:09.135Z,14.57
2023-04-13T20:31:13.247Z,14.37
2023-04-13T20:35:15.806Z,14.17
2023-04-13T20:39:25.582Z,14.28
2023-04-13T20:43:31.427Z,14.27
2023-04-13T20:47:35.961Z,14.12
2023-04-13T20:51:41.542Z,14.15
2023-04-13T20:55:42.185Z,14.15
2023-04-13T20:59:48.687Z,14.07
2023-04-13T21:03:53.459Z,13.99
2023-04-13T21:07:58.269Z,13.89
2023-04-13T21:12:02.586Z,14.02
2023-04-13T21:16:06.335Z,14.05
2023-04-13T21:20:15.953Z,14.00
2023-04-13T21:24:20.586Z,13.78
2023-04-13T21:28:29.212Z,13.73
2023-04-13T21:32:34.996Z,13.71
2023-04-13T21:40:47.836Z,13.27
2023-04-13T21:44:57.415Z,13.07
2023-04-13T21:49:05.498Z,12.98
2023-04-13T21:53:06.227Z,12.87
2023-04-13T21:57:10.670Z,12.62
2023-04-13T22:01:13.173Z,12.33
2023-04-13T22:05:19.027Z,12.16
2023-04-13T22:09:41.155Z,12.13
2023-04-13T22:18:35.931Z,11.82
2023-04-13T22:23:11.163Z,11.71
2023-04-13T22:27:31.868Z,11.66
2023-04-13T22:31:51.053Z,11.64
2023-04-13T22:35:55.885Z,11.77
2023-04-13T22:40:00.419Z,12.16
2023-04-13T22:44:05.670Z,12.28
2023-04-13T22:48:19.865Z,12.14
2023-04-13T22:52:36.033Z,11.96
2023-04-13T22:56:58.278Z,11.67
2023-04-13T23:01:03.730Z,11.45
2023-04-13T23:05:03.616Z,11.37
2023-04-13T23:09:04.504Z,11.34
2023-04-13T23:13:10.484Z,11.42
2023-04-13T23:17:16.153Z,11.41
2023-04-13T23:21:27.944Z,11.41
2023-04-13T23:25:34.261Z,11.46
2023-04-13T23:29:45.528Z,11.41
2023-04-13T23:33:46.061Z,11.35
2023-04-13T23:37:47.366Z,11.53
2023-04-13T23:41:50.394Z,11.41
2023-04-13T23:45:57.408Z,10.80
2023-04-13T23:49:57.737Z,10.66
2023-04-13T23:54:03.689Z,10.72
2023-04-13T23:58:08.019Z,10.69
